Time;durP1;ratioP1;P1;durP2;ratioP2;P2;SDS_P1;SDS_P2;PMS_P1;PMS_P2;Temp;Humidity;BMP_temperature;BMP_pressure;BME280_temperature;BME280_humidity;BME280_pressure;Samples;Min_cycle;Max_cycle;Signal;HPM_P1;HPM_P2
2022/09/07 00:00:35;;;;;;;3.03;2.13;;;;;;;21.37;61.83;98577.53;4881510;29;20045;-68
2022/09/07 00:03:03;;;;;;;2.38;1.92;;;;;;;21.39;62.50;98579.94;4882622;29;20041;-67
2022/09/07 00:05:30;;;;;;;4.38;1.90;;;;;;;21.42;62.11;98590.19;4881355;29;20466;-67
2022/09/07 00:07:58;;;;;;;1.98;1.83;;;;;;;21.39;62.35;98574.56;4880704;29;20056;-67
2022/09/07 00:10:25;;;;;;;3.47;1.98;;;;;;;21.32;62.60;98561.41;4881324;29;20068;-68
2022/09/07 00:12:51;;;;;;;1.67;1.58;;;;;;;21.25;63.39;98572.41;4865697;29;20068;-67
2022/09/07 00:15:18;;;;;;;1.83;1.73;;;;;;;21.27;63.50;98581.00;4881222;29;20049;-68
2022/09/07 00:17:45;;;;;;;1.92;1.30;;;;;;;21.26;63.98;98587.44;4881961;29;20520;-68
2022/09/07 00:20:11;;;;;;;1.30;1.20;;;;;;;21.24;64.17;98591.50;4880510;29;20060;-68
2022/09/07 00:22:38;;;;;;;1.20;1.10;;;;;;;21.18;64.62;98584.47;4865986;29;20501;-67
2022/09/07 00:25:05;;;;;;;1.08;0.98;;;;;;;21.16;64.85;98557.06;4863758;29;20549;-69
2022/09/07 00:27:31;;;;;;;1.00;1.00;;;;;;;21.15;65.11;98553.59;4862062;29;20494;-69
2022/09/07 00:29:58;;;;;;;0.68;0.68;;;;;;;21.14;65.37;98543.09;4861848;29;20041;-68
2022/09/07 00:32:24;;;;;;;1.30;1.20;;;;;;;21.13;64.98;98542.28;4862912;29;20068;-68
2022/09/07 00:34:51;;;;;;;2.15;1.50;;;;;;;21.13;65.13;98528.84;4861687;29;20437;-69
2022/09/07 00:37:17;;;;;;;2.33;2.08;;;;;;;21.12;65.34;98524.53;4861391;29;20057;-69
2022/09/07 00:39:44;;;;;;;2.83;1.90;;;;;;;21.08;65.34;98520.78;4862639;29;20116;-69
2022/09/07 00:42:11;;;;;;;2.10;1.90;;;;;;;21.05;65.87;98517.81;4862765;29;20409;-68
2022/09/07 00:44:43;;;;;;;3.63;2.55;;;;;;;20.99;65.88;98520.50;4862588;29;20060;-69
2022/09/07 00:47:25;;;;;;;4.25;2.63;;;;;;;20.95;66.55;98527.50;4861401;29;20053;-68
2022/09/07 00:49:58;;;;;;;3.03;2.30;;;;;;;20.98;66.70;98542.25;4876146;29;20509;-69
2022/09/07 00:52:27;;;;;;;8.85;1.83;;;;;;;21.03;67.18;98575.34;4875638;29;20053;-69
2022/09/07 00:54:58;;;;;;;3.88;2.20;;;;;;;21.06;67.17;98704.84;4881026;29;20501;-69
2022/09/07 00:57:27;;;;;;;3.30;2.22;;;;;;;20.84;67.91;98756.88;4881424;29;20041;-68
2022/09/07 00:59:56;;;;;;;3.25;2.08;;;;;;;20.32;72.10;98744.16;4881702;29;20166;-68
2022/09/07 01:02:24;;;;;;;3.25;1.40;;;;;;;19.86;75.87;98708.94;4881242;29;20052;-68
2022/09/07 01:04:59;;;;;;;3.05;1.17;;;;;;;19.58;79.17;98693.06;4882207;29;20144;-67
2022/09/07 01:07:25;;;;;;;1.58;1.20;;;;;;;19.46;82.34;98693.22;4883499;29;20140;-67
2022/09/07 01:09:53;;;;;;;1.40;1.30;;;;;;;19.40;84.30;98686.22;4879751;29;20045;-67
2022/09/07 01:12:20;;;;;;;0.93;0.93;;;;;;;19.36;87.05;98682.41;4879422;29;20529;-67
2022/09/07 01:14:49;;;;;;;1.50;1.40;;;;;;;19.37;87.99;98659.91;4880907;29;20049;-67
2022/09/07 01:17:22;;;;;;;2.70;1.70;;;;;;;19.38;89.22;98664.19;4879274;29;20053;-67
2022/09/07 01:19:51;;;;;;;2.00;1.77;;;;;;;19.38;89.61;98661.50;4878384;29;20678;-67
2022/09/07 01:22:49;;;;;;;2.20;1.95;;;;;;;19.33;88.72;98642.72;4874288;29;20049;-67
2022/09/07 01:25:39;;;;;;;2.30;1.85;;;;;;;19.21;90.02;98640.19;4879333;29;20049;-67
2022/09/07 01:28:12;;;;;;;1.83;1.30;;;;;;;19.22;90.75;98639.09;4880165;29;20045;-67
2022/09/07 01:30:44;;;;;;;2.30;1.77;;;;;;;19.15;90.78;98628.59;4879306;29;20064;-67
2022/09/07 01:33:32;;;;;;;1.55;1.30;;;;;;;19.08;91.01;98619.16;4879213;29;20049;-65
2022/09/07 01:36:04;;;;;;;2.55;1.35;;;;;;;19.04;91.78;98616.97;4880204;29;20047;-65
2022/09/07 01:38:39;;;;;;;1.83;1.60;;;;;;;19.00;91.33;98609.69;4880228;29;20049;-65
2022/09/07 01:41:17;;;;;;;4.25;1.67;;;;;;;18.94;91.34;98605.31;4879338;29;20053;-66
2022/09/07 01:44:02;;;;;;;1.58;1.48;;;;;;;18.89;91.26;98590.00;4879027;29;20497;-66
2022/09/07 01:46:35;;;;;;;1.60;1.50;;;;;;;18.90;91.85;98594.34;4879832;29;20049;-66
2022/09/07 01:49:15;;;;;;;3.35;1.67;;;;;;;18.92;91.35;98589.50;4879732;29;20069;-66
2022/09/07 01:51:46;;;;;;;2.70;1.60;;;;;;;18.98;90.42;98582.34;4872450;29;20509;-67
2022/09/07 01:54:22;;;;;;;1.83;1.63;;;;;;;19.02;88.68;98578.09;4878849;29;20395;-67
2022/09/07 01:56:55;;;;;;;1.80;1.52;;;;;;;19.07;88.06;98588.88;4878449;29;20053;-66
2022/09/07 01:59:31;;;;;;;2.75;1.63;;;;;;;19.13;86.81;98584.38;4879979;29;20049;-66
2022/09/07 02:02:04;;;;;;;3.22;1.58;;;;;;;19.17;85.46;98583.59;4880238;29;20053;-66
2022/09/07 02:04:39;;;;;;;1.38;1.13;;;;;;;19.28;84.96;98584.50;4880140;29;20053;-66
2022/09/07 02:07:25;;;;;;;1.50;1.40;;;;;;;19.30;83.87;98585.06;4877894;29;20056;-66
2022/09/07 02:10:00;;;;;;;1.42;1.10;;;;;;;19.36;83.94;98588.59;4879625;29;20055;-67
2022/09/07 02:12:36;;;;;;;1.40;1.10;;;;;;;19.42;83.55;98590.25;4879740;29;20044;-67
2022/09/07 02:15:14;;;;;;;0.77;0.70;;;;;;;19.45;83.08;98579.84;4878608;29;20053;-67
2022/09/07 02:17:44;;;;;;;0.90;0.88;;;;;;;19.51;83.04;98578.81;4879234;29;20383;-67
2022/09/07 02:20:38;;;;;;;1.55;1.10;;;;;;;19.57;82.18;98570.81;4875572;29;20041;-67
2022/09/07 02:23:14;;;;;;;0.88;0.80;;;;;;;19.58;81.73;98575.91;4859261;29;20067;-67
2022/09/07 02:25:47;;;;;;;0.98;0.85;;;;;;;19.58;81.85;98578.59;4875106;29;20153;-67
2022/09/07 02:28:20;;;;;;;1.13;0.80;;;;;;;19.63;81.66;98580.53;4860421;29;20053;-67
2022/09/07 02:30:47;;;;;;;0.63;0.63;;;;;;;19.65;81.53;98575.75;4875124;29;20057;-68
2022/09/07 02:33:13;;;;;;;0.60;0.60;;;;;;;19.68;81.26;98584.06;4860683;29;20502;-67
2022/09/07 02:35:40;;;;;;;0.73;0.70;;;;;;;19.71;81.04;98590.78;4860668;29;20458;-67
2022/09/07 02:38:07;;;;;;;0.63;0.63;;;;;;;19.71;81.13;98599.63;4860414;29;20061;-67
2022/09/07 02:40:33;;;;;;;1.08;0.90;;;;;;;19.71;80.61;98605.00;4874770;29;20053;-67
2022/09/07 02:43:05;;;;;;;1.00;0.90;;;;;;;19.68;80.32;98592.13;4874954;29;20045;-67
2022/09/07 02:46:03;;;;;;;0.65;0.65;;;;;;;19.66;79.72;98599.59;4860752;29;20060;-67
2022/09/07 02:48:35;;;;;;;1.63;0.90;;;;;;;19.62;79.61;98590.44;4853526;29;20148;-67
2022/09/07 02:51:21;;;;;;;0.90;0.90;;;;;;;19.60;79.66;98589.88;4860722;29;20070;-67
2022/09/07 02:54:20;;;;;;;0.63;0.63;;;;;;;19.59;79.62;98598.16;4878953;29;20489;-67
2022/09/07 02:57:18;;;;;;;1.33;0.80;;;;;;;19.54;79.24;98597.06;4878708;29;20437;-67
2022/09/07 03:00:00;;;;;;;1.45;0.80;;;;;;;19.52;79.01;98590.34;4879241;29;20402;-68
2022/09/07 03:02:45;;;;;;;0.80;0.80;;;;;;;19.54;79.25;98590.88;4878938;29;20064;-68
2022/09/07 03:05:30;;;;;;;0.65;0.65;;;;;;;19.57;79.12;98592.25;4878643;29;20049;-68
2022/09/07 03:08:00;;;;;;;0.98;0.80;;;;;;;19.61;79.49;98596.06;4877266;29;20049;-68
2022/09/07 03:10:27;;;;;;;0.57;0.57;;;;;;;19.65;79.06;98597.19;4878633;29;20045;-67
2022/09/07 03:12:54;;;;;;;0.77;0.70;;;;;;;19.65;79.14;98592.63;4878698;29;20556;-67
2022/09/07 03:15:24;;;;;;;0.82;0.70;;;;;;;19.65;78.44;98597.19;4878628;29;20053;-67
2022/09/07 03:17:52;;;;;;;0.70;0.70;;;;;;;19.62;78.68;98587.78;4877999;29;20053;-67
2022/09/07 03:20:19;;;;;;;0.93;0.73;;;;;;;19.66;78.80;98585.38;4860502;29;20045;-68
2022/09/07 03:22:48;;;;;;;0.60;0.60;;;;;;;19.68;79.05;98586.75;4875860;29;20049;-67
2022/09/07 03:25:14;;;;;;;1.20;1.08;;;;;;;19.72;78.26;98585.19;4877227;29;20089;-68
2022/09/07 03:27:41;;;;;;;1.30;0.70;;;;;;;19.76;78.43;98590.84;4878314;29;20045;-68
2022/09/07 03:30:09;;;;;;;0.95;0.82;;;;;;;19.78;78.18;98592.19;4877103;29;20087;-68
2022/09/07 03:32:37;;;;;;;2.25;1.55;;;;;;;19.81;77.75;98592.75;4878605;29;20520;-68
2022/09/07 03:35:06;;;;;;;1.10;0.98;;;;;;;19.78;77.91;98596.75;4877204;29;20045;-68
2022/09/07 03:37:36;;;;;;;1.38;1.17;;;;;;;19.74;77.86;98599.13;4878353;29;20049;-68
2022/09/07 03:40:08;;;;;;;2.03;1.60;;;;;;;19.65;77.75;98600.66;4878317;29;20042;-67
2022/09/07 03:42:36;;;;;;;1.50;1.17;;;;;;;19.57;78.07;98605.66;4878516;29;20045;-67
2022/09/07 03:45:05;;;;;;;1.40;1.30;;;;;;;19.55;78.68;98600.53;4878481;29;20049;-67
2022/09/07 03:47:38;;;;;;;1.27;1.17;;;;;;;19.52;78.49;98601.06;4876870;29;20068;-68
2022/09/07 03:50:06;;;;;;;;;;;;;;;19.51;78.66;98607.47;4858881;29;20050;-67
2022/09/07 03:52:36;;;;;;;1.20;0.82;;;;;;;19.47;78.42;98601.00;4873778;29;19924;-67
2022/09/07 03:55:03;;;;;;;1.90;1.60;;;;;;;19.45;78.49;98597.78;4861964;29;20060;-67
2022/09/07 03:57:30;;;;;;;2.00;1.50;;;;;;;19.37;78.46;98591.03;4877998;29;20502;-67
2022/09/07 03:59:56;;;;;;;3.53;2.08;;;;;;;19.32;78.32;98590.97;4878280;29;20037;-67
2022/09/07 04:02:23;;;;;;;2.30;1.60;;;;;;;19.32;78.70;98590.19;5347000;23;20049;-67
2022/09/07 04:04:50;;;;;;;1.55;1.33;;;;;;;19.28;78.62;98600.59;4897220;29;20516;-68
2022/09/07 04:07:16;;;;;;;1.45;1.10;;;;;;;19.26;78.94;98603.50;4897813;29;20081;-67
2022/09/07 04:09:44;;;;;;;1.30;1.13;;;;;;;19.27;79.15;98613.19;4897841;29;20485;-68
2022/09/07 04:12:10;;;;;;;1.30;1.15;;;;;;;19.28;79.40;98609.44;4895962;29;20051;-66
2022/09/07 04:14:43;;;;;;;2.03;1.40;;;;;;;19.29;79.09;98612.94;4897419;29;20089;-67
2022/09/07 04:17:10;;;;;;;1.55;1.30;;;;;;;19.28;79.16;98614.78;4835637;29;20125;-66
2022/09/07 04:19:36;;;;;;;1.88;1.42;;;;;;;19.26;78.64;98616.09;4848737;29;20041;-66
2022/09/07 04:22:03;;;;;;;2.53;1.88;;;;;;;19.24;78.91;98618.25;4859051;29;20058;-66
2022/09/07 04:24:29;;;;;;;2.20;2.00;;;;;;;19.21;78.74;98610.69;4859638;29;20053;-67
2022/09/07 04:26:56;;;;;;;3.30;2.17;;;;;;;19.16;78.69;98614.16;4859656;29;20050;-66
2022/09/07 04:29:22;;;;;;;3.97;2.00;;;;;;;19.11;78.86;98607.94;4859581;29;20056;-67
2022/09/07 04:31:49;;;;;;;5.25;2.15;;;;;;;19.08;79.31;98608.44;4862996;29;20048;-67
2022/09/07 04:34:16;;;;;;;2.78;1.90;;;;;;;19.07;79.52;98612.19;4845366;29;20383;-68
2022/09/07 04:36:42;;;;;;;2.22;2.00;;;;;;;19.07;79.67;98606.81;4859223;29;20069;-67
2022/09/07 04:39:10;;;;;;;2.20;2.00;;;;;;;19.07;79.63;98614.84;4862787;29;20085;-67
2022/09/07 04:41:36;;;;;;;2.03;1.70;;;;;;;19.07;79.93;98604.94;4861670;29;20100;-67
2022/09/07 04:44:03;;;;;;;2.13;1.83;;;;;;;19.06;79.50;98600.63;4862843;29;20136;-67
2022/09/07 04:46:33;;;;;;;3.63;2.38;;;;;;;19.00;79.57;98610.50;4862798;29;20421;-67
2022/09/07 04:49:03;;;;;;;3.20;1.90;;;;;;;18.97;79.68;98599.47;4861644;29;20473;-67
2022/09/07 04:51:31;;;;;;;3.15;2.63;;;;;;;18.94;79.41;98595.44;4862641;29;20421;-67
2022/09/07 04:54:00;;;;;;;3.05;1.98;;;;;;;18.94;79.82;98599.97;4862622;29;20057;-68
2022/09/07 04:56:27;;;;;;;2.28;1.77;;;;;;;18.92;79.39;98613.63;4862275;29;20055;-68
2022/09/07 04:58:54;;;;;;;1.77;1.58;;;;;;;18.90;80.15;98607.72;4862560;29;20049;-68
2022/09/07 05:01:23;;;;;;;1.63;1.50;;;;;;;18.91;79.98;98622.72;4862528;29;20136;-68
2022/09/07 05:03:50;;;;;;;1.20;1.00;;;;;;;18.91;80.44;98620.03;4854675;29;20053;-67
2022/09/07 05:06:19;;;;;;;2.03;1.25;;;;;;;18.93;80.25;98617.09;4855665;29;20049;-67
2022/09/07 05:08:48;;;;;;;1.15;1.05;;;;;;;18.95;80.37;98618.47;4861200;29;20434;-67
2022/09/07 05:11:16;;;;;;;0.82;0.82;;;;;;;18.98;79.82;98623.34;4862336;29;20405;-68
2022/09/07 05:13:43;;;;;;;1.20;1.10;;;;;;;19.01;80.18;98616.66;4860986;29;20059;-68
2022/09/07 05:16:16;;;;;;;1.33;1.23;;;;;;;19.03;79.63;98619.91;4861788;29;20054;-67
2022/09/07 05:18:43;;;;;;;1.38;1.27;;;;;;;19.04;79.95;98629.56;4861283;29;20060;-68
2022/09/07 05:21:13;;;;;;;1.23;1.00;;;;;;;19.08;79.91;98628.00;4862279;29;20401;-69
2022/09/07 05:23:40;;;;;;;1.20;1.10;;;;;;;19.13;79.15;98638.75;4862172;29;20414;-69
2022/09/07 05:26:08;;;;;;;1.58;1.25;;;;;;;19.16;79.32;98645.50;4862058;29;20483;-68
2022/09/07 05:28:35;;;;;;;1.30;1.08;;;;;;;19.18;79.26;98646.84;4862122;29;20057;-68
2022/09/07 05:31:09;;;;;;;1.17;1.00;;;;;;;19.23;79.20;98648.78;4845684;29;20053;-68
2022/09/07 05:33:49;;;;;;;1.23;0.98;;;;;;;19.24;78.96;98661.94;4855066;29;20511;-68
2022/09/07 05:36:36;;;;;;;1.20;0.85;;;;;;;19.26;79.01;98661.66;4856144;29;20076;-68
2022/09/07 05:39:04;;;;;;;1.75;0.80;;;;;;;19.28;78.77;98670.28;4860773;29;20140;-68
2022/09/07 05:41:31;;;;;;;1.25;1.00;;;;;;;19.30;78.64;98671.63;4861038;29;20486;-68
2022/09/07 05:43:57;;;;;;;1.67;1.33;;;;;;;19.34;78.50;98668.44;4861903;29;20077;-69
2022/09/07 05:46:44;;;;;;;1.20;1.02;;;;;;;19.38;77.94;98672.25;4860104;29;20665;-68
2022/09/07 05:49:10;;;;;;;1.10;1.00;;;;;;;19.40;78.33;98662.88;4860122;29;20061;-68
2022/09/07 05:51:37;;;;;;;1.05;0.80;;;;;;;19.47;78.00;98668.88;4861506;29;20050;-69
2022/09/07 05:54:04;;;;;;;1.33;1.00;;;;;;;19.55;77.92;98673.78;4861545;29;20054;-68
2022/09/07 05:56:34;;;;;;;1.50;1.30;;;;;;;19.67;77.74;98670.94;4859962;29;20166;-69
2022/09/07 05:59:01;;;;;;;1.13;1.02;;;;;;;19.77;77.41;98671.03;4861345;29;20144;-69
2022/09/07 06:01:27;;;;;;;1.40;1.23;;;;;;;19.91;76.86;98673.28;4861286;29;20510;-69
2022/09/07 06:03:54;;;;;;;2.85;1.10;;;;;;;20.06;76.83;98667.22;4851885;29;20070;-69
2022/09/07 06:06:21;;;;;;;1.55;1.00;;;;;;;20.17;76.17;98667.06;4853832;29;20045;-69
2022/09/07 06:08:49;;;;;;;1.75;1.13;;;;;;;20.27;76.10;98661.72;4861210;29;20064;-68
2022/09/07 06:11:20;;;;;;;2.45;1.48;;;;;;;20.37;75.86;98670.91;4860005;29;20052;-67
2022/09/07 06:13:47;;;;;;;1.85;1.05;;;;;;;20.39;75.36;98671.47;4859897;29;20053;-68
2022/09/07 06:16:15;;;;;;;1.60;1.02;;;;;;;20.39;75.68;98674.16;4860806;29;20607;-68
2022/09/07 06:18:44;;;;;;;1.33;1.13;;;;;;;20.41;75.72;98680.06;4859986;29;20502;-68
2022/09/07 06:21:14;;;;;;;2.10;1.40;;;;;;;20.39;75.53;98669.59;4860942;29;20394;-68
2022/09/07 06:23:42;;;;;;;1.00;1.00;;;;;;;20.38;75.62;98680.59;4859903;29;20513;-68
2022/09/07 06:26:10;;;;;;;1.30;1.02;;;;;;;20.43;75.43;98688.69;4860833;29;20490;-68
2022/09/07 06:28:42;;;;;;;0.95;0.90;;;;;;;20.48;75.62;98686.00;4860993;29;20053;-68
2022/09/07 06:31:12;;;;;;;1.40;1.00;;;;;;;20.54;75.05;98682.34;4859726;29;20132;-68
2022/09/07 06:33:43;;;;;;;0.85;0.82;;;;;;;20.57;75.70;98689.84;4852760;29;20494;-68
2022/09/07 06:36:15;;;;;;;2.40;1.55;;;;;;;20.67;75.30;98695.28;4845882;29;20056;-68
2022/09/07 06:38:42;;;;;;;2.92;1.33;;;;;;;20.77;75.13;98694.53;4860700;29;20124;-68
2022/09/07 06:41:18;;;;;;;1.70;1.48;;;;;;;20.89;74.34;98694.31;4860672;29;20087;-67
2022/09/07 06:44:04;;;;;;;4.13;1.25;;;;;;;20.93;73.86;98698.09;4860900;29;20054;-67
2022/09/07 06:46:31;;;;;;;1.27;0.98;;;;;;;20.92;73.89;98693.78;4859632;29;20049;-67
2022/09/07 06:49:17;;;;;;;1.23;1.00;;;;;;;20.93;73.96;98693.53;4860497;29;20056;-67
2022/09/07 06:51:44;;;;;;;1.40;1.27;;;;;;;21.00;74.13;98687.91;4859306;29;20067;-67
2022/09/07 06:54:10;;;;;;;1.10;0.80;;;;;;;21.06;73.87;98691.41;4859162;29;20057;-67
2022/09/07 06:56:57;;;;;;;1.88;1.00;;;;;;;21.11;73.39;98694.94;4860063;29;20562;-67
2022/09/07 06:59:23;;;;;;;2.42;1.10;;;;;;;21.14;73.19;98697.09;4860239;29;20064;-67
2022/09/07 07:01:50;;;;;;;1.17;1.00;;;;;;;21.18;73.64;98698.19;4859247;29;20488;-67
2022/09/07 07:04:17;;;;;;;1.88;1.00;;;;;;;21.22;73.03;98691.19;4841804;29;20053;-67
2022/09/07 07:06:43;;;;;;;2.55;1.20;;;;;;;21.22;72.73;98691.19;4855681;29;20057;-68
2022/09/07 07:09:11;;;;;;;1.88;1.45;;;;;;;21.25;72.79;98687.19;4860312;29;20131;-68
2022/09/07 07:11:38;;;;;;;2.15;1.33;;;;;;;21.35;72.91;98686.44;4858831;29;20054;-69
2022/09/07 07:14:04;;;;;;;2.40;1.20;;;;;;;21.46;72.56;98680.81;4859005;29;20053;-68
2022/09/07 07:16:31;;;;;;;2.03;1.20;;;;;;;21.53;72.21;98685.94;4859952;29;20418;-67
2022/09/07 07:18:58;;;;;;;1.60;1.48;;;;;;;21.61;72.08;98692.69;4859913;29;20045;-68
2022/09/07 07:21:24;;;;;;;3.05;1.35;;;;;;;21.71;71.86;98684.59;4858911;29;20537;-68
2022/09/07 07:23:52;;;;;;;2.30;1.40;;;;;;;21.80;71.51;98688.41;4860068;29;20453;-68
2022/09/07 07:26:21;;;;;;;1.52;1.10;;;;;;;21.91;71.50;98684.59;4859640;29;20050;-68
2022/09/07 07:28:50;;;;;;;1.77;1.30;;;;;;;22.05;70.71;98692.16;4860041;29;20056;-68
2022/09/07 07:31:32;;;;;;;;;;;;;;;22.07;70.50;98685.41;4859032;29;20494;-67
2022/09/07 07:33:59;;;;;;;1.27;1.17;;;;;;;22.13;70.49;98692.47;4850997;29;19924;-68
2022/09/07 07:36:27;;;;;;;1.63;1.00;;;;;;;22.24;70.19;98688.66;4854185;29;20045;-68
2022/09/07 07:38:55;;;;;;;2.28;1.30;;;;;;;22.44;69.78;98692.41;4859711;29;20487;-68
2022/09/07 07:41:30;;;;;;;1.67;1.50;;;;;;;22.56;69.34;98697.50;4860093;29;20052;-68
2022/09/07 07:44:17;;;;;;;3.22;1.52;;;;;;;22.64;68.84;98702.31;4859799;29;20475;-67
2022/09/07 07:46:47;;;;;;;1.48;1.38;;;;;;;22.76;69.03;98705.53;4859538;29;20422;-68
2022/09/07 07:49:14;;;;;;;2.80;1.23;;;;;;;22.87;68.66;98701.72;4859804;29;20403;-67
2022/09/07 07:51:41;;;;;;;1.65;1.10;;;;;;;22.93;67.97;98707.91;4843140;29;20053;-68
2022/09/07 07:54:28;;;;;;;2.72;1.50;;;;;;;23.09;67.63;98705.97;4858706;29;20073;-67
2022/09/07 07:56:54;;;;;;;2.60;1.50;;;;;;;23.13;67.35;98705.13;4859371;29;20053;-67
2022/09/07 07:59:21;;;;;;;1.55;1.40;;;;;;;23.18;67.26;98704.28;4859720;29;20057;-67
2022/09/07 08:01:47;;;;;;;3.22;1.58;;;;;;;23.14;66.86;98704.03;4858497;29;20049;-67
2022/09/07 08:04:14;;;;;;;1.83;1.33;;;;;;;23.04;66.91;98703.28;4848669;29;20513;-67
2022/09/07 08:06:41;;;;;;;1.52;1.35;;;;;;;23.08;67.39;98707.84;4859323;29;20049;-68
2022/09/07 08:09:08;;;;;;;2.72;1.55;;;;;;;23.18;66.79;98707.00;4861950;29;20060;-68
2022/09/07 08:11:35;;;;;;;2.65;1.42;;;;;;;23.18;66.78;98709.69;4863262;29;20042;-68
2022/09/07 08:14:04;;;;;;;1.90;1.10;;;;;;;23.17;66.64;98714.28;4862065;29;20054;-68
2022/09/07 08:16:31;;;;;;;2.47;1.50;;;;;;;23.16;66.52;98709.97;4862692;29;20041;-68
2022/09/07 08:18:58;;;;;;;2.22;1.48;;;;;;;23.18;66.09;98715.09;4861825;29;20061;-68
2022/09/07 08:21:25;;;;;;;1.38;1.20;;;;;;;23.15;66.11;98716.47;4863162;29;20049;-68
2022/09/07 08:23:51;;;;;;;1.23;1.02;;;;;;;23.17;66.25;98724.25;4863122;29;20047;-68
2022/09/07 08:26:18;;;;;;;2.35;1.20;;;;;;;23.26;66.16;98719.91;4862789;29;20045;-67
2022/09/07 08:28:45;;;;;;;2.90;1.30;;;;;;;23.33;65.60;98733.88;4862341;29;20049;-66
2022/09/07 08:31:13;;;;;;;1.67;1.23;;;;;;;23.39;65.69;98723.88;4863303;29;20046;-67
2022/09/07 08:33:40;;;;;;;1.33;1.15;;;;;;;23.47;65.01;98729.50;4854994;29;20053;-67
2022/09/07 08:36:11;;;;;;;2.33;1.30;;;;;;;23.59;65.00;98733.75;4854901;29;20045;-67
2022/09/07 08:38:38;;;;;;;4.18;1.70;;;;;;;23.70;64.00;98729.94;4861791;29;20052;-67
2022/09/07 08:41:27;;;;;;;3.22;1.15;;;;;;;23.80;64.28;98739.84;4862771;29;20041;-67
2022/09/07 08:44:10;;;;;;;1.48;1.00;;;;;;;23.78;64.01;98736.63;4861666;29;20058;-67
2022/09/07 08:46:44;;;;;;;2.88;1.30;;;;;;;23.83;63.88;98739.28;4862679;29;20057;-68
2022/09/07 08:49:16;;;;;;;2.88;1.38;;;;;;;23.82;63.64;98751.19;4861516;29;20473;-68
2022/09/07 08:52:08;;;;;;;2.53;1.17;;;;;;;23.81;63.48;98747.69;4864655;29;20486;-68
2022/09/07 08:54:36;;;;;;;2.95;1.42;;;;;;;23.87;63.58;98749.25;4867924;29;20057;-67
2022/09/07 08:57:03;;;;;;;1.15;1.05;;;;;;;24.01;63.40;98746.72;4866843;29;20106;-68
2022/09/07 09:00:12;;;;;;;2.85;1.23;;;;;;;24.14;63.05;98754.19;4866364;29;20160;-67
2022/09/07 09:02:40;;;;;;;1.27;1.02;;;;;;;24.27;62.55;98752.72;4860981;29;20042;-67
2022/09/07 09:05:20;;;;;;;1.95;1.30;;;;;;;24.44;62.24;98755.81;4862900;29;20098;-68
2022/09/07 09:08:06;;;;;;;1.15;1.02;;;;;;;24.66;61.49;98757.25;4845374;29;20076;-67
2022/09/07 09:10:54;;;;;;;1.60;1.38;;;;;;;24.81;60.47;98743.56;4844471;29;20052;-67
2022/09/07 09:13:38;;;;;;;3.53;1.27;;;;;;;24.89;59.90;98745.63;4845608;29;20082;-68
2022/09/07 09:16:31;;;;;;;2.35;1.30;;;;;;;25.02;59.10;98746.03;4843772;29;20049;-68
2022/09/07 09:19:29;;;;;;;1.23;1.10;;;;;;;25.18;59.11;98748.28;4845949;29;20522;-67
2022/09/07 09:22:08;;;;;;;1.15;1.05;;;;;;;25.40;58.46;98742.34;4844836;29;20050;-68
2022/09/07 09:24:40;;;;;;;2.15;1.23;;;;;;;25.58;57.90;98732.63;4845686;29;20050;-68
2022/09/07 09:27:18;;;;;;;2.35;1.38;;;;;;;25.61;57.87;98732.03;4846759;29;20058;-68
2022/09/07 09:29:44;;;;;;;1.20;1.10;;;;;;;25.63;57.76;98731.75;4846100;29;20050;-67
2022/09/07 09:32:30;;;;;;;1.58;1.20;;;;;;;25.62;57.76;98732.84;4842560;29;20054;-65
2022/09/07 09:35:03;;;;;;;2.42;1.67;;;;;;;25.62;57.20;98741.75;4851288;29;20054;-66
2022/09/07 09:37:37;;;;;;;1.88;1.20;;;;;;;25.59;57.64;98726.09;4861786;29;20069;-67
2022/09/07 09:40:07;;;;;;;2.10;1.27;;;;;;;25.61;57.62;98723.13;4860685;29;20121;-66
2022/09/07 09:42:35;;;;;;;2.13;1.20;;;;;;;25.61;57.24;98712.28;4862046;29;20049;-67
2022/09/07 09:45:11;;;;;;;1.73;1.40;;;;;;;25.56;57.03;98709.66;4862017;29;20053;-67
2022/09/07 09:47:38;;;;;;;1.55;1.30;;;;;;;25.43;57.54;98703.06;4860455;29;20109;-67
2022/09/07 09:50:16;;;;;;;1.98;1.23;;;;;;;25.43;57.71;98703.06;4861815;29;20057;-65
2022/09/07 09:53:04;;;;;;;3.15;1.20;;;;;;;25.25;57.06;98709.28;4861606;29;20077;-66
2022/09/07 09:55:33;;;;;;;2.67;1.55;;;;;;;25.24;57.21;98711.19;4861484;29;20072;-66
2022/09/07 09:58:05;;;;;;;2.13;1.38;;;;;;;25.21;57.18;98700.94;4845163;29;20455;-66
2022/09/07 10:01:21;;;;;;;3.28;1.35;;;;;;;25.11;56.66;98696.47;4861280;29;20179;-65
2022/09/07 10:03:49;;;;;;;1.33;1.13;;;;;;;25.07;56.64;98698.13;4849119;29;20062;-68
2022/09/07 10:06:19;;;;;;;1.20;1.10;;;;;;;25.09;56.92;98689.75;4854749;29;20494;-65
2022/09/07 10:08:57;;;;;;;2.50;1.58;;;;;;;25.15;56.66;98697.50;4861331;29;20105;-67
2022/09/07 10:11:44;;;;;;;2.35;1.33;;;;;;;25.27;56.83;98688.13;4860051;29;20053;-67
2022/09/07 10:14:45;;;;;;;2.75;1.50;;;;;;;25.38;56.47;98693.13;4861234;29;20045;-64
2022/09/07 10:17:27;;;;;;;1.65;1.33;;;;;;;25.50;56.20;98694.59;4893029;23;20052;-72
2022/09/07 10:20:19;;;;;;;1.50;1.40;;;;;;;25.60;55.66;98697.16;4892289;29;20137;-69
2022/09/07 10:22:51;;;;;;;1.50;1.40;;;;;;;25.57;55.57;98701.25;4878488;29;20057;-70
2022/09/07 10:25:35;;;;;;;1.85;1.25;;;;;;;25.59;55.75;98704.44;4879570;29;20087;-70
2022/09/07 10:28:12;;;;;;;1.42;1.33;;;;;;;25.60;55.88;98710.69;4879138;29;20049;-70
2022/09/07 10:30:53;;;;;;;1.92;1.33;;;;;;;25.57;55.57;98712.06;4880013;29;20041;-70
2022/09/07 10:33:27;;;;;;;1.90;1.38;;;;;;;25.64;55.26;98704.41;4898920;29;20139;-70
2022/09/07 10:36:09;;;;;;;1.75;1.27;;;;;;;25.70;55.71;98710.53;4897088;29;20053;-70
2022/09/07 10:39:02;;;;;;;1.20;1.10;;;;;;;25.84;55.47;98713.31;4898222;29;20053;-70
2022/09/07 10:41:51;;;;;;;1.17;1.02;;;;;;;26.07;54.79;98706.97;4898218;29;20056;-69
2022/09/07 10:44:45;;;;;;;1.20;1.10;;;;;;;26.19;54.32;98707.31;4898150;29;20108;-69
2022/09/07 10:47:20;;;;;;;1.40;1.30;;;;;;;26.21;53.77;98707.03;4898259;29;20121;-70
2022/09/07 10:50:07;;;;;;;3.70;1.60;;;;;;;26.13;53.70;98705.00;4898315;29;20127;-69
2022/09/07 10:53:17;;;;;;;2.35;1.60;;;;;;;25.90;54.20;98704.03;4896750;29;20100;-70
2022/09/07 10:56:09;;;;;;;1.42;1.30;;;;;;;25.73;54.32;98703.72;4897977;29;20049;-70
2022/09/07 10:58:51;;;;;;;1.40;1.30;;;;;;;25.64;54.60;98698.19;4897846;29;20044;-67
2022/09/07 11:02:15;;;;;;;1.88;1.40;;;;;;;25.58;54.22;98700.16;4896552;29;20048;-67
2022/09/07 11:05:16;;;;;;;1.98;1.50;;;;;;;25.50;54.07;98695.38;4883682;29;20041;-67
2022/09/07 11:08:04;;;;;;;1.38;1.17;;;;;;;25.55;54.39;98694.50;4861078;29;20121;-67
2022/09/07 11:11:10;;;;;;;2.42;1.60;;;;;;;25.48;53.98;98686.78;4876042;29;20049;-67
2022/09/07 11:13:40;;;;;;;1.83;1.30;;;;;;;25.50;53.40;98683.75;4860337;29;20057;-66
2022/09/07 11:16:32;;;;;;;2.15;1.30;;;;;;;25.56;53.20;98679.91;4859264;29;20146;-67
2022/09/07 11:19:26;;;;;;;1.85;1.23;;;;;;;25.60;53.19;98684.44;4872515;29;20120;-66
2022/09/07 11:22:28;;;;;;;3.42;1.20;;;;;;;25.74;52.92;98665.53;4860919;29;20053;-66
2022/09/07 11:25:14;;;;;;;1.63;1.40;;;;;;;25.81;52.60;98665.19;4861200;29;20083;-67
2022/09/07 11:28:16;;;;;;;2.30;1.45;;;;;;;25.89;52.06;98665.31;4860138;29;20045;-66
2022/09/07 11:31:07;;;;;;;2.17;1.48;;;;;;;25.94;51.39;98672.53;4860339;29;20487;-66
2022/09/07 11:33:53;;;;;;;2.58;1.50;;;;;;;25.95;51.37;98663.31;4879623;29;20047;-66
2022/09/07 11:37:10;;;;;;;1.83;1.10;;;;;;;26.03;51.14;98659.94;4896000;29;20068;-68
2022/09/07 11:39:51;;;;;;;1.80;1.30;;;;;;;26.15;50.69;98670.28;4887116;29;20109;-68
2022/09/07 11:42:29;;;;;;;2.45;1.27;;;;;;;26.31;50.07;98668.91;4896194;29;20081;-66
2022/09/07 11:45:17;;;;;;;1.40;1.17;;;;;;;26.50;49.67;98665.38;4897546;29;20063;-66
2022/09/07 11:48:01;;;;;;;1.63;1.40;;;;;;;26.61;49.35;98662.13;4896947;29;20505;-67
2022/09/07 11:50:34;;;;;;;2.78;1.55;;;;;;;26.78;48.83;98656.13;4897375;29;20044;-69
2022/09/07 11:53:18;;;;;;;1.30;1.20;;;;;;;26.85;48.60;98653.78;4896156;29;20048;-67
2022/09/07 11:55:49;;;;;;;2.63;1.15;;;;;;;26.98;48.33;98645.94;4896052;29;20048;-67
2022/09/07 11:58:49;;;;;;;1.85;1.20;;;;;;;27.08;47.57;98646.53;4896249;29;20037;-66
2022/09/07 12:01:38;;;;;;;2.28;1.25;;;;;;;27.01;47.76;98653.47;4880934;29;20104;-68
2022/09/07 12:04:28;;;;;;;2.55;0.95;;;;;;;27.02;47.23;98652.34;4889261;29;20088;-67
2022/09/07 12:07:10;;;;;;;1.90;1.25;;;;;;;27.08;46.70;98657.38;4879929;29;20498;-67